Time;durP1;ratioP1;P1;durP2;ratioP2;P2;SDS_P1;SDS_P2;PMS_P1;PMS_P2;Temp;Humidity;BMP_temperature;BMP_pressure;BME280_temperature;BME280_humidity;BME280_pressure;Samples;Min_cycle;Max_cycle;Signal;HPM_P1;HPM_P2
2021/10/18 00:01:30;;;;;;;25.40;9.00;;;;;;;8.53;76.35;100894.04;113182;1198;25089;-58
2021/10/18 00:04:01;;;;;;;22.30;8.80;;;;;;;8.54;76.41;100899.65;113110;1197;22458;-57
2021/10/18 00:06:33;;;;;;;26.50;10.10;;;;;;;8.55;76.52;100901.45;113173;1197;22441;-59
2021/10/18 00:09:05;;;;;;;25.70;9.30;;;;;;;8.56;76.76;100898.17;113297;1197;25027;-57
2021/10/18 00:11:36;;;;;;;26.90;9.80;;;;;;;8.56;76.95;100899.60;113163;1197;24148;-58
2021/10/18 00:14:07;;;;;;;26.80;10.50;;;;;;;8.56;77.12;100897.53;113096;1191;22467;-57
2021/10/18 00:16:39;;;;;;;22.90;8.40;;;;;;;8.55;77.34;100903.03;113138;1198;22439;-57
2021/10/18 00:19:10;;;;;;;24.30;8.20;;;;;;;8.55;77.50;100902.55;113154;1193;24052;-58
2021/10/18 00:21:41;;;;;;;23.00;8.40;;;;;;;8.54;77.67;100902.37;113166;1197;22436;-58
2021/10/18 00:24:12;;;;;;;22.20;9.20;;;;;;;8.52;78.01;100901.17;113171;1197;22520;-58
2021/10/18 00:26:43;;;;;;;20.70;7.70;;;;;;;8.51;78.33;100900.33;113259;1190;22432;-58
2021/10/18 00:29:14;;;;;;;22.20;8.40;;;;;;;8.50;78.50;100905.15;113198;1198;24040;-58
2021/10/18 00:31:45;;;;;;;21.60;7.70;;;;;;;8.49;78.58;100905.16;112989;1198;22436;-58
2021/10/18 00:34:16;;;;;;;20.60;8.80;;;;;;;8.48;78.78;100902.90;113172;1198;25072;-56
2021/10/18 00:36:47;;;;;;;23.60;9.00;;;;;;;8.47;79.11;100905.38;113222;1193;23763;-59
2021/10/18 00:39:18;;;;;;;23.30;8.00;;;;;;;8.46;79.10;100904.94;113165;1198;22542;-56
2021/10/18 00:41:49;;;;;;;22.80;8.20;;;;;;;8.45;79.35;100906.58;113153;1191;22436;-58
2021/10/18 00:44:19;;;;;;;25.90;8.30;;;;;;;8.44;79.38;100903.96;113189;1197;22480;-58
2021/10/18 00:46:50;;;;;;;26.90;8.90;;;;;;;8.44;79.54;100903.25;113165;1190;24034;-57
2021/10/18 00:49:21;;;;;;;24.70;8.60;;;;;;;8.43;79.78;100903.68;113041;1197;25152;-58
2021/10/18 00:51:52;;;;;;;25.40;8.70;;;;;;;8.42;79.88;100905.46;113094;1198;22548;-56
2021/10/18 00:54:23;;;;;;;20.20;7.60;;;;;;;8.42;79.98;100901.75;113101;1193;24063;-58
2021/10/18 00:56:54;;;;;;;28.10;7.20;;;;;;;8.41;80.06;100900.33;112978;1190;26542;-57
2021/10/18 00:59:25;;;;;;;21.10;7.90;;;;;;;8.41;80.30;100899.15;113079;1197;23600;-58
2021/10/18 01:01:56;;;;;;;24.80;7.60;;;;;;;8.40;80.45;100901.88;113051;1198;24997;-58
2021/10/18 01:04:27;;;;;;;23.80;8.70;;;;;;;8.40;80.52;100901.27;113153;1198;22454;-57
2021/10/18 01:06:59;;;;;;;17.00;5.70;;;;;;;8.39;80.67;100901.14;113139;1198;22437;-58
2021/10/18 01:09:30;;;;;;;23.00;8.00;;;;;;;8.37;80.89;100901.19;113287;1197;24015;-58
2021/10/18 01:12:01;;;;;;;19.50;6.80;;;;;;;8.36;81.02;100900.17;113064;1197;22446;-59
2021/10/18 01:14:32;;;;;;;18.80;7.30;;;;;;;8.35;81.17;100904.28;113011;1195;22505;-57
2021/10/18 01:17:04;;;;;;;20.10;7.60;;;;;;;8.34;81.18;100905.41;113006;1198;24064;-58
2021/10/18 01:19:35;;;;;;;19.40;7.20;;;;;;;8.34;81.39;100907.41;113165;1198;22442;-58
2021/10/18 01:22:06;;;;;;;19.40;7.20;;;;;;;8.32;81.63;100907.07;113039;1196;24130;-59
2021/10/18 01:24:37;;;;;;;20.00;7.40;;;;;;;8.33;81.84;100904.44;112995;1197;22439;-58
2021/10/18 01:27:09;;;;;;;22.60;7.10;;;;;;;8.31;81.93;100905.84;113148;1198;22425;-58
2021/10/18 01:29:40;;;;;;;21.60;7.50;;;;;;;8.31;82.04;100905.20;113274;1198;22446;-58
2021/10/18 01:32:11;;;;;;;24.60;7.70;;;;;;;8.31;82.27;100907.02;113136;1198;22545;-57
2021/10/18 01:34:42;;;;;;;21.90;8.00;;;;;;;8.31;82.29;100904.42;112992;1190;22419;-56
2021/10/18 01:37:13;;;;;;;23.00;9.00;;;;;;;8.31;82.32;100905.70;113068;1198;25019;-56
2021/10/18 01:39:44;;;;;;;24.40;7.90;;;;;;;8.31;82.50;100903.54;113298;1198;22438;-56
2021/10/18 01:42:15;;;;;;;21.30;7.50;;;;;;;8.31;82.51;100905.94;112990;1198;22433;-57
2021/10/18 01:44:46;;;;;;;21.20;7.80;;;;;;;8.31;82.58;100902.66;112992;1190;24042;-57
2021/10/18 01:47:17;;;;;;;25.90;8.20;;;;;;;8.32;82.82;100905.12;113079;1198;24145;-56
2021/10/18 01:49:48;;;;;;;18.30;5.90;;;;;;;8.32;82.94;100912.87;113021;1198;22445;-56
2021/10/18 01:52:19;;;;;;;20.30;6.90;;;;;;;8.32;83.09;100907.64;113002;1197;22508;-57
2021/10/18 01:54:50;;;;;;;17.60;5.40;;;;;;;8.31;82.95;100906.16;112987;1198;23780;-57
2021/10/18 01:57:21;;;;;;;17.70;5.70;;;;;;;8.31;83.31;100905.77;113042;1198;22471;-58
2021/10/18 01:59:52;;;;;;;14.90;5.70;;;;;;;8.31;83.29;100907.05;112993;1198;25028;-57
2021/10/18 02:02:23;;;;;;;17.70;6.60;;;;;;;8.30;83.38;100906.02;113230;1198;25194;-57
2021/10/18 02:04:54;;;;;;;18.70;6.80;;;;;;;8.30;83.46;100912.95;113181;1197;22418;-57
2021/10/18 02:07:24;;;;;;;21.00;6.60;;;;;;;8.30;83.61;100905.00;113053;1182;22596;-57
2021/10/18 02:09:55;;;;;;;18.80;6.80;;;;;;;8.30;83.69;100909.45;113154;1194;22429;-56
2021/10/18 02:12:26;;;;;;;18.50;7.10;;;;;;;8.30;83.77;100903.17;113111;1197;25107;-57
2021/10/18 02:14:57;;;;;;;16.00;6.00;;;;;;;8.29;83.83;100903.77;113173;1198;25080;-56
2021/10/18 02:17:28;;;;;;;23.20;7.80;;;;;;;8.29;83.87;100902.42;113179;1198;26316;-56
2021/10/18 02:19:59;;;;;;;19.10;6.10;;;;;;;8.29;84.03;100906.79;113256;1197;26266;-58
2021/10/18 02:22:29;;;;;;;21.20;6.70;;;;;;;8.29;84.19;100901.46;113147;1190;25075;-57
2021/10/18 02:25:00;;;;;;;17.90;6.10;;;;;;;8.28;84.09;100906.08;113238;1198;25124;-57
2021/10/18 02:27:32;;;;;;;17.20;5.60;;;;;;;8.28;84.25;100903.86;113313;1197;25723;-56
2021/10/18 02:30:04;;;;;;;20.30;6.50;;;;;;;8.29;84.41;100903.06;113087;1190;22990;-56
2021/10/18 02:32:36;;;;;;;17.10;6.00;;;;;;;8.28;84.57;100904.60;113141;1198;22555;-55
2021/10/18 02:35:09;;;;;;;17.00;6.00;;;;;;;8.27;84.65;100899.46;113126;1198;24064;-57
2021/10/18 02:37:41;;;;;;;19.90;7.00;;;;;;;8.27;84.63;100902.80;113158;1198;25134;-57
2021/10/18 02:40:13;;;;;;;15.90;5.80;;;;;;;8.27;84.71;100904.47;113169;1190;24077;-58
2021/10/18 02:42:43;;;;;;;16.90;6.20;;;;;;;8.26;84.80;100907.67;113231;1197;22437;-57
2021/10/18 02:45:14;;;;;;;18.70;6.70;;;;;;;8.26;85.01;100909.02;113064;1198;22473;-57
2021/10/18 02:47:45;;;;;;;18.30;6.50;;;;;;;8.25;84.86;100906.73;113004;1197;22541;-55
2021/10/18 02:50:16;;;;;;;20.90;6.30;;;;;;;8.26;84.97;100907.20;113024;1197;23398;-57
2021/10/18 02:52:46;;;;;;;17.40;5.10;;;;;;;8.26;84.91;100905.29;113038;1198;22440;-57
2021/10/18 02:55:17;;;;;;;17.10;5.90;;;;;;;8.25;85.02;100906.82;113276;1192;23120;-56
2021/10/18 02:57:48;;;;;;;13.70;5.00;;;;;;;8.25;85.19;100904.42;113086;1198;24179;-57
2021/10/18 03:00:19;;;;;;;17.40;5.90;;;;;;;8.25;85.11;100906.03;113169;1197;22435;-56
2021/10/18 03:02:50;;;;;;;17.30;5.00;;;;;;;8.25;85.18;100905.62;112999;1183;22473;-58
2021/10/18 03:05:22;;;;;;;19.40;6.30;;;;;;;8.25;85.16;100905.31;113024;1193;22435;-58
2021/10/18 03:07:55;;;;;;;18.70;5.90;;;;;;;8.25;85.21;100909.20;113186;1197;22440;-56
2021/10/18 03:10:26;;;;;;;17.50;6.40;;;;;;;8.25;85.32;100915.16;113028;1197;22433;-56
2021/10/18 03:12:57;;;;;;;18.00;5.80;;;;;;;8.25;85.32;100914.37;113133;1198;22419;-57
2021/10/18 03:15:28;;;;;;;18.20;5.00;;;;;;;8.24;85.40;100918.04;113010;1192;25123;-57
2021/10/18 03:18:00;;;;;;;16.20;5.60;;;;;;;8.24;85.52;100922.97;113085;1192;25120;-56
2021/10/18 03:20:31;;;;;;;18.00;5.90;;;;;;;8.23;85.55;100922.23;113260;1184;22671;-57
2021/10/18 03:23:02;;;;;;;18.10;5.20;;;;;;;8.23;85.50;100922.94;113071;1198;22438;-56
2021/10/18 03:25:35;;;;;;;17.80;5.90;;;;;;;8.22;85.58;100926.05;113012;1198;23158;-58
2021/10/18 03:28:07;;;;;;;20.90;6.10;;;;;;;8.22;85.60;100923.66;113025;1190;25152;-57
2021/10/18 03:30:38;;;;;;;14.50;5.30;;;;;;;8.22;85.57;100926.45;113236;1197;22443;-57
2021/10/18 03:33:09;;;;;;;15.70;5.30;;;;;;;8.22;85.64;100925.58;113092;1197;24061;-58
2021/10/18 03:35:40;;;;;;;15.10;5.10;;;;;;;8.21;85.83;100930.86;113020;1184;25411;-57
2021/10/18 03:38:11;;;;;;;17.60;5.50;;;;;;;8.21;85.71;100935.40;113114;1193;25450;-57
2021/10/18 03:40:43;;;;;;;17.10;6.30;;;;;;;8.20;85.79;100937.80;113228;1198;22450;-57
2021/10/18 03:43:15;;;;;;;18.70;5.90;;;;;;;8.20;86.05;100937.80;113067;1197;22527;-57
2021/10/18 03:45:46;;;;;;;18.30;5.60;;;;;;;8.19;86.00;100942.67;113043;1197;22804;-57
2021/10/18 03:48:17;;;;;;;19.00;5.90;;;;;;;8.19;86.18;100946.66;113118;1197;22423;-57
2021/10/18 03:50:49;;;;;;;20.50;6.60;;;;;;;8.18;86.10;100947.86;113078;1197;25188;-58
2021/10/18 03:53:20;;;;;;;19.30;6.20;;;;;;;8.17;86.10;100945.35;113051;1191;22890;-58
2021/10/18 03:55:51;;;;;;;20.00;7.50;;;;;;;8.18;86.25;100948.58;113166;1197;25094;-57
2021/10/18 03:58:22;;;;;;;15.00;6.50;;;;;;;8.17;86.30;100951.96;113080;1192;22420;-57
2021/10/18 04:00:53;;;;;;;19.90;6.20;;;;;;;8.17;86.42;100954.18;113073;1198;22929;-58
2021/10/18 04:03:24;;;;;;;14.70;6.20;;;;;;;8.16;86.43;100953.96;113248;1197;22713;-57
2021/10/18 04:05:55;;;;;;;19.10;7.40;;;;;;;8.16;86.37;100949.20;113181;1197;22453;-58
2021/10/18 04:08:28;;;;;;;18.60;7.60;;;;;;;8.17;86.50;100952.98;113172;1197;25058;-58
2021/10/18 04:10:58;;;;;;;17.70;6.60;;;;;;;8.17;86.62;100956.10;113187;1197;25001;-57
2021/10/18 04:13:29;;;;;;;18.50;7.90;;;;;;;8.17;86.71;100959.53;113276;1197;26286;-58
2021/10/18 04:16:01;;;;;;;20.20;8.10;;;;;;;8.17;86.69;100958.96;113120;1197;22437;-58
2021/10/18 04:18:32;;;;;;;22.30;8.20;;;;;;;8.17;86.78;100965.00;113263;1197;22435;-58
2021/10/18 04:21:05;;;;;;;23.10;9.60;;;;;;;8.18;86.67;100965.92;112989;1197;22477;-58
2021/10/18 04:23:36;;;;;;;19.00;7.10;;;;;;;8.18;86.83;100972.43;113100;1193;24074;-56
2021/10/18 04:26:07;;;;;;;21.80;8.40;;;;;;;8.18;86.89;100975.67;113123;1190;22426;-58
2021/10/18 04:28:38;;;;;;;23.90;10.10;;;;;;;8.18;86.98;100980.86;113156;1192;22444;-58
2021/10/18 04:31:09;;;;;;;22.10;9.30;;;;;;;8.18;86.99;100978.30;112980;1192;25052;-58
2021/10/18 04:33:40;;;;;;;20.40;8.60;;;;;;;8.19;86.95;100983.60;113117;1190;24085;-58
2021/10/18 04:36:11;;;;;;;23.50;9.70;;;;;;;8.19;87.11;100983.75;113115;1190;25002;-57
2021/10/18 04:38:41;;;;;;;22.30;9.10;;;;;;;8.20;87.11;100983.66;113115;1192;22429;-58
2021/10/18 04:41:13;;;;;;;24.50;10.20;;;;;;;8.20;87.03;100986.75;113126;1197;22437;-59
2021/10/18 04:43:44;;;;;;;21.00;9.30;;;;;;;8.21;87.10;100985.54;113281;1197;22444;-59
2021/10/18 04:46:15;;;;;;;24.10;10.00;;;;;;;8.22;86.96;100984.79;113359;1197;24028;-59
2021/10/18 04:48:46;;;;;;;25.10;11.10;;;;;;;8.23;87.07;100988.90;113111;1197;26292;-59
2021/10/18 04:51:17;;;;;;;23.30;10.10;;;;;;;8.23;87.10;100993.50;112978;1197;22458;-59
2021/10/18 04:53:48;;;;;;;21.60;9.10;;;;;;;8.23;87.22;100995.48;113036;1197;22442;-57
2021/10/18 04:56:19;;;;;;;23.00;9.00;;;;;;;8.23;87.20;100993.65;113006;1197;24995;-58
2021/10/18 04:58:50;;;;;;;26.70;10.30;;;;;;;8.23;87.15;100993.02;113156;1197;25087;-58
2021/10/18 05:01:21;;;;;;;25.80;11.10;;;;;;;8.23;87.32;100993.73;112934;1190;25073;-59
2021/10/18 05:03:52;;;;;;;24.80;11.00;;;;;;;8.24;87.37;100995.38;113709;1197;23451;-58
2021/10/18 05:06:23;;;;;;;21.50;9.80;;;;;;;8.24;87.35;100996.56;113684;1170;24154;-60
2021/10/18 05:08:54;;;;;;;28.70;10.60;;;;;;;8.25;87.50;100998.23;113269;1197;24141;-58
2021/10/18 05:11:25;;;;;;;26.60;12.40;;;;;;;8.25;87.45;100999.56;113346;1197;22549;-59
2021/10/18 05:13:57;;;;;;;22.20;9.60;;;;;;;8.25;87.55;101002.52;113149;1190;23981;-60
2021/10/18 05:16:27;;;;;;;22.50;10.80;;;;;;;8.26;87.51;101007.34;113190;1197;26975;-61
2021/10/18 05:18:58;;;;;;;24.50;11.20;;;;;;;8.26;87.59;101007.27;113316;1197;25022;-61
2021/10/18 05:21:29;;;;;;;25.10;10.40;;;;;;;8.26;87.47;101014.64;113112;1190;22434;-62
2021/10/18 05:24:00;;;;;;;27.80;11.60;;;;;;;8.27;87.52;101018.11;113180;1190;22446;-59
2021/10/18 05:26:31;;;;;;;27.00;11.60;;;;;;;8.27;87.74;101022.48;113415;1197;25108;-60
2021/10/18 05:29:03;;;;;;;23.60;10.60;;;;;;;8.28;87.64;101022.70;113426;1197;22455;-59
2021/10/18 05:31:34;;;;;;;27.00;11.00;;;;;;;8.28;87.69;101025.86;113378;1197;25064;-60
2021/10/18 05:34:05;;;;;;;31.60;12.20;;;;;;;8.28;87.72;101030.71;113487;1197;22438;-61
2021/10/18 05:36:36;;;;;;;24.60;10.40;;;;;;;8.30;87.69;101037.20;113455;1190;22459;-60
2021/10/18 05:39:07;;;;;;;25.10;10.20;;;;;;;8.30;87.65;101042.20;113514;1197;24153;-63
2021/10/18 05:41:39;;;;;;;25.40;11.00;;;;;;;8.30;87.68;101045.95;113443;1197;22436;-60
2021/10/18 05:44:10;;;;;;;24.40;10.70;;;;;;;8.30;87.61;101057.39;113228;1190;22437;-61
2021/10/18 05:46:41;;;;;;;24.60;10.60;;;;;;;8.30;87.77;101059.52;113671;1190;25014;-61
2021/10/18 05:49:12;;;;;;;26.20;10.20;;;;;;;8.31;87.74;101059.59;114119;1197;23717;-63
2021/10/18 05:51:43;;;;;;;21.90;9.40;;;;;;;8.31;87.66;101067.27;113393;1197;25415;-61
2021/10/18 05:54:14;;;;;;;26.00;10.90;;;;;;;8.33;87.60;101069.29;113622;1182;23966;-62
2021/10/18 05:56:45;;;;;;;25.30;11.50;;;;;;;8.33;87.58;101073.66;113461;1197;22414;-61
2021/10/18 05:59:16;;;;;;;21.60;9.50;;;;;;;8.34;87.59;101077.92;113686;1197;22437;-61
2021/10/18 06:01:47;;;;;;;25.20;9.90;;;;;;;8.34;87.70;101083.30;113590;1197;25086;-62
2021/10/18 06:04:19;;;;;;;23.60;9.90;;;;;;;8.34;87.54;101085.07;113656;1197;22425;-62
2021/10/18 06:06:50;;;;;;;22.50;8.70;;;;;;;8.35;87.51;101087.02;113671;1197;25058;-62
2021/10/18 06:09:21;;;;;;;23.40;10.20;;;;;;;8.36;87.52;101084.23;113504;1174;25422;-63
2021/10/18 06:11:51;;;;;;;21.10;9.60;;;;;;;8.36;87.52;101088.43;113516;1197;22429;-62
2021/10/18 06:14:22;;;;;;;20.20;8.90;;;;;;;8.36;87.52;101090.16;113558;1197;22609;-62
2021/10/18 06:16:54;;;;;;;24.80;10.00;;;;;;;8.37;87.57;101091.34;116664;1197;24075;-62
2021/10/18 06:19:25;;;;;;;24.60;9.90;;;;;;;8.37;87.54;101088.79;113715;1197;25013;-62
2021/10/18 06:21:55;;;;;;;28.30;9.90;;;;;;;8.37;87.58;101088.55;113635;1197;24210;-59
2021/10/18 06:24:29;;;;;;;23.00;9.60;;;;;;;8.38;87.65;101097.65;113640;1197;24062;-60
2021/10/18 06:27:00;;;;;;;26.00;9.10;;;;;;;8.39;87.54;101107.25;113599;1190;23820;-60
2021/10/18 06:29:32;;;;;;;22.20;8.80;;;;;;;8.40;87.53;101105.80;113385;1197;22467;-59
2021/10/18 06:32:06;;;;;;;24.90;9.30;;;;;;;8.40;87.58;101113.56;113201;1197;23812;-62
2021/10/18 06:34:39;;;;;;;25.20;10.00;;;;;;;8.41;87.65;101109.25;113195;1190;22455;-62
2021/10/18 06:37:10;;;;;;;21.60;9.50;;;;;;;8.43;87.66;101113.96;113183;1192;22432;-60
2021/10/18 06:39:40;;;;;;;22.80;10.00;;;;;;;8.44;87.70;101117.66;113333;1197;22433;-59
2021/10/18 06:42:12;;;;;;;20.90;8.90;;;;;;;8.46;87.67;101117.92;113212;1197;22431;-60
2021/10/18 06:44:43;;;;;;;20.10;8.30;;;;;;;8.46;87.71;101119.83;113256;1197;22429;-60
2021/10/18 06:47:16;;;;;;;17.40;7.50;;;;;;;8.48;87.70;101126.29;113216;1197;22436;-60
2021/10/18 06:49:48;;;;;;;22.50;9.40;;;;;;;8.49;87.59;101128.80;113120;1197;25055;-60
2021/10/18 06:52:21;;;;;;;21.40;9.90;;;;;;;8.50;87.58;101132.44;113144;1197;22487;-59
2021/10/18 06:54:53;;;;;;;21.80;8.50;;;;;;;8.51;87.63;101139.73;113178;1197;22986;-59
2021/10/18 06:57:24;;;;;;;25.20;8.60;;;;;;;8.54;87.66;101143.21;113372;1190;22441;-61
2021/10/18 06:59:54;;;;;;;22.20;8.70;;;;;;;8.55;87.59;101142.95;113229;1197;22448;-60
2021/10/18 07:02:26;;;;;;;22.10;8.50;;;;;;;8.56;87.66;101145.23;113206;1190;24157;-59
2021/10/18 07:04:57;;;;;;;21.10;8.30;;;;;;;8.56;87.60;101145.91;113334;1197;22441;-58
2021/10/18 07:07:28;;;;;;;23.10;8.80;;;;;;;8.58;87.63;101142.86;113211;1197;22453;-60
2021/10/18 07:10:01;;;;;;;20.90;8.40;;;;;;;8.59;87.51;101146.24;113218;1197;25140;-59
2021/10/18 07:12:33;;;;;;;24.10;9.10;;;;;;;8.61;87.63;101151.44;113476;1197;22535;-59
2021/10/18 07:15:06;;;;;;;28.50;9.70;;;;;;;8.63;87.50;101156.78;113371;1190;23925;-61
2021/10/18 07:17:38;;;;;;;22.10;8.40;;;;;;;8.64;87.56;101159.91;113414;1197;22454;-62
2021/10/18 07:20:12;;;;;;;19.40;8.10;;;;;;;8.66;87.57;101162.57;113341;1197;22440;-61
2021/10/18 07:22:44;;;;;;;22.20;8.30;;;;;;;8.69;87.45;101163.59;113690;1197;25309;-60
2021/10/18 07:25:17;;;;;;;24.50;9.40;;;;;;;8.71;87.35;101166.46;113288;1190;22432;-62
2021/10/18 07:27:48;;;;;;;21.40;9.20;;;;;;;8.73;87.41;101162.58;113170;1190;24096;-60
2021/10/18 07:30:20;;;;;;;22.40;8.30;;;;;;;8.76;87.44;101159.15;113221;1197;25168;-60
2021/10/18 07:32:51;;;;;;;22.40;8.90;;;;;;;8.78;87.19;101158.38;113131;1197;22457;-60
2021/10/18 07:35:28;;;;;;;22.20;9.40;;;;;;;8.79;87.20;101158.80;113100;1197;24107;-60
2021/10/18 07:37:59;;;;;;;21.00;7.80;;;;;;;8.84;87.23;101162.42;113122;1197;25140;-62
2021/10/18 07:40:31;;;;;;;21.80;8.50;;;;;;;8.86;87.35;101164.72;113232;1197;22480;-60
2021/10/18 07:43:02;;;;;;;21.90;9.60;;;;;;;8.89;87.25;101169.73;113448;1197;25127;-60
2021/10/18 07:45:35;;;;;;;21.80;8.90;;;;;;;8.91;86.96;101168.80;113183;1197;22425;-60
2021/10/18 07:48:06;;;;;;;28.10;8.80;;;;;;;8.94;87.00;101171.88;113125;1197;24118;-59
2021/10/18 07:50:38;;;;;;;23.00;10.80;;;;;;;8.98;86.94;101176.95;113267;1197;25121;-60
2021/10/18 07:53:09;;;;;;;24.60;10.50;;;;;;;8.99;86.98;101178.80;113474;1197;22428;-60
2021/10/18 07:55:40;;;;;;;25.20;9.40;;;;;;;9.03;86.98;101179.02;113239;1197;24050;-59
2021/10/18 07:58:11;;;;;;;23.00;8.80;;;;;;;9.05;86.91;101179.08;113112;1197;25203;-59
2021/10/18 08:00:42;;;;;;;27.50;7.10;;;;;;;9.08;86.78;101180.28;113053;1197;22426;-60
2021/10/18 08:03:13;;;;;;;20.50;8.20;;;;;;;9.10;86.56;101181.88;113104;1197;22422;-59
2021/10/18 08:05:44;;;;;;;23.60;8.20;;;;;;;9.12;86.66;101176.86;113188;1197;22436;-60
2021/10/18 08:08:21;;;;;;;23.60;8.60;;;;;;;9.15;86.58;101174.64;113107;1197;22431;-61
2021/10/18 08:10:53;;;;;;;22.60;8.70;;;;;;;9.17;86.59;101180.93;113152;1197;25063;-59
2021/10/18 08:13:24;;;;;;;20.90;8.90;;;;;;;9.21;86.50;101187.74;113205;1190;22477;-60
2021/10/18 08:15:55;;;;;;;22.90;7.60;;;;;;;9.24;86.59;101190.98;113225;1190;22432;-61
2021/10/18 08:18:26;;;;;;;20.20;7.40;;;;;;;9.26;86.23;101190.14;113117;1197;22446;-60
2021/10/18 08:20:57;;;;;;;20.80;6.80;;;;;;;9.28;86.28;101186.88;113151;1197;22416;-60
2021/10/18 08:23:28;;;;;;;23.70;7.40;;;;;;;9.31;86.09;101185.82;113130;1197;25023;-60
2021/10/18 08:25:59;;;;;;;20.30;7.10;;;;;;;9.34;86.09;101192.26;113119;1197;25292;-60
2021/10/18 08:28:30;;;;;;;20.90;7.00;;;;;;;9.37;86.17;101193.11;113076;1197;25216;-60
2021/10/18 08:31:01;;;;;;;21.80;7.40;;;;;;;9.40;86.19;101191.00;113213;1197;26399;-62
2021/10/18 08:33:33;;;;;;;19.70;7.00;;;;;;;9.42;85.95;101188.86;113119;1197;22436;-60
2021/10/18 08:36:05;;;;;;;35.80;13.40;;;;;;;9.45;85.97;101193.41;113187;1197;24157;-60
2021/10/18 08:38:46;;;;;;;26.30;11.10;;;;;;;9.47;85.92;101196.35;113218;1197;22867;-60
2021/10/18 08:41:26;;;;;;;19.00;6.90;;;;;;;9.50;85.96;101193.64;113112;1197;22436;-60
2021/10/18 08:44:16;;;;;;;16.50;6.10;;;;;;;9.51;85.43;101198.61;113225;1197;25113;-59
2021/10/18 08:46:52;;;;;;;18.30;5.70;;;;;;;9.53;85.27;101207.08;113163;1197;22501;-60
2021/10/18 08:49:24;;;;;;;19.90;6.20;;;;;;;9.53;85.03;101203.80;113106;1190;22418;-61
2021/10/18 08:51:55;;;;;;;16.60;6.50;;;;;;;9.53;85.11;101209.38;113313;1197;22897;-60
2021/10/18 08:54:26;;;;;;;24.30;7.10;;;;;;;9.53;85.00;101214.63;113339;1197;25050;-60
2021/10/18 08:56:58;;;;;;;22.90;7.40;;;;;;;9.54;85.14;101221.12;113591;1197;22437;-60
2021/10/18 08:59:29;;;;;;;23.40;6.90;;;;;;;9.54;84.99;101223.20;113144;1190;25136;-60
2021/10/18 09:02:01;;;;;;;21.20;6.70;;;;;;;9.54;84.80;101224.41;113093;1190;22503;-60
2021/10/18 09:04:38;;;;;;;17.30;5.80;;;;;;;9.53;84.74;101231.73;113056;1193;24087;-61
2021/10/18 09:07:18;;;;;;;18.50;6.60;;;;;;;9.52;84.63;101232.48;113058;1198;25309;-60
2021/10/18 09:09:51;;;;;;;17.40;6.50;;;;;;;9.53;84.79;101233.98;113208;1197;25125;-58
2021/10/18 09:12:31;;;;;;;16.90;6.70;;;;;;;9.54;84.70;101235.21;113250;1190;25487;-60
2021/10/18 09:15:21;;;;;;;18.30;5.60;;;;;;;9.54;84.64;101232.02;113184;1197;22433;-60
2021/10/18 09:17:56;;;;;;;18.50;4.60;;;;;;;9.56;84.67;101229.75;113155;1197;22525;-60
2021/10/18 09:20:29;;;;;;;16.80;6.00;;;;;;;9.56;84.56;101231.87;113214;1190;22448;-60
2021/10/18 09:23:23;;;;;;;17.40;5.60;;;;;;;9.58;84.58;101231.90;113137;1197;22499;-60
2021/10/18 09:26:00;;;;;;;21.50;5.60;;;;;;;9.61;84.52;101234.52;113102;1197;25360;-60
2021/10/18 09:28:33;;;;;;;25.10;5.80;;;;;;;9.63;84.56;101233.90;113355;1197;22457;-59
2021/10/18 09:31:04;;;;;;;17.10;5.50;;;;;;;9.65;84.55;101227.62;113331;1197;25024;-61
2021/10/18 09:33:38;;;;;;;16.60;5.80;;;;;;;9.66;84.31;101223.83;113261;1197;24108;-60
2021/10/18 09:36:12;;;;;;;19.40;6.40;;;;;;;9.68;84.22;101222.95;113229;1190;24050;-60
2021/10/18 09:38:43;;;;;;;22.30;7.00;;;;;;;9.71;84.16;101215.55;113126;1197;25130;-60
2021/10/18 09:41:14;;;;;;;21.20;7.30;;;;;;;9.74;84.10;101217.34;113200;1197;22481;-60
2021/10/18 09:43:57;;;;;;;21.40;7.30;;;;;;;9.77;84.04;101217.73;113149;1197;22440;-59
2021/10/18 09:46:37;;;;;;;20.90;7.00;;;;;;;9.83;84.30;101219.44;113137;1197;22418;-60
2021/10/18 10:51:54;;;;;;;19.90;5.20;;;;;;;10.74;81.68;101223.65;113169;1197;22489;-60
2021/10/18 10:54:40;;;;;;;18.90;6.70;;;;;;;10.75;81.40;101221.18;113149;1197;25111;-60
2021/10/18 10:57:12;;;;;;;18.70;5.10;;;;;;;10.78;81.58;101224.80;113164;1190;22756;-60
2021/10/18 10:59:55;;;;;;;14.20;3.60;;;;;;;10.79;81.12;101226.58;113199;1197;25085;-59
2021/10/18 11:02:33;;;;;;;17.60;3.50;;;;;;;10.80;81.14;101231.48;113171;1197;25024;-59
2021/10/18 11:05:04;;;;;;;12.30;3.00;;;;;;;10.82;81.16;101232.54;113234;1197;22428;-59
2021/10/18 11:07:55;;;;;;;15.90;4.20;;;;;;;10.83;80.81;101232.83;113226;1197;25111;-60
2021/10/18 11:10:26;;;;;;;10.40;3.20;;;;;;;10.84;80.76;101231.19;113153;1190;25102;-60
2021/10/18 11:13:08;;;;;;;14.00;3.60;;;;;;;10.84;80.86;101232.36;113185;1197;22460;-59
2021/10/18 11:15:40;;;;;;;16.20;3.80;;;;;;;10.85;80.64;101231.94;113242;1190;25110;-60
2021/10/18 11:18:15;;;;;;;11.50;3.50;;;;;;;10.87;80.77;101231.65;113144;1190;22528;-60
2021/10/18 11:20:46;;;;;;;15.50;3.80;;;;;;;10.89;80.65;101229.73;113157;1197;25205;-59
2021/10/18 11:23:17;;;;;;;10.80;3.20;;;;;;;10.90;80.73;101228.25;113228;1197;22434;-60
2021/10/18 11:25:49;;;;;;;18.80;3.50;;;;;;;10.92;80.55;101228.23;113244;1197;22561;-60
2021/10/18 11:28:20;;;;;;;13.30;3.80;;;;;;;10.94;80.57;101221.28;113399;1197;22640;-61
2021/10/18 11:31:00;;;;;;;15.00;3.40;;;;;;;10.96;80.43;101225.98;113564;1197;22397;-60
2021/10/18 11:33:31;;;;;;;13.80;3.10;;;;;;;10.97;80.07;101220.20;113457;1197;25391;-60
2021/10/18 11:36:14;;;;;;;11.50;3.00;;;;;;;10.99;80.32;101220.13;113654;1197;22444;-62
2021/10/18 11:38:45;;;;;;;14.30;3.50;;;;;;;11.03;80.48;101219.11;113424;1190;25029;-62
2021/10/18 11:41:15;;;;;;;13.20;2.60;;;;;;;11.06;80.18;101215.02;113492;1190;24067;-62
2021/10/18 11:43:50;;;;;;;13.50;3.10;;;;;;;11.09;80.00;101211.86;113438;1197;22440;-60
2021/10/18 11:46:21;;;;;;;11.70;2.40;;;;;;;11.13;80.18;101210.23;113525;1197;22463;-62
2021/10/18 11:48:52;;;;;;;13.10;2.50;;;;;;;11.17;79.80;101207.85;113819;1197;25067;-62
2021/10/18 11:51:24;;;;;;;11.50;2.70;;;;;;;11.19;79.50;101207.02;113602;1197;22487;-62
2021/10/18 11:53:57;;;;;;;10.70;2.10;;;;;;;11.23;79.50;101199.52;113590;1197;25141;-60
2021/10/18 11:56:27;;;;;;;12.40;2.00;;;;;;;11.27;79.19;101191.55;113640;1197;25134;-61
2021/10/18 11:59:05;;;;;;;7.80;2.00;;;;;;;11.31;79.35;101193.45;113491;1197;22474;-63
2021/10/18 12:01:36;;;;;;;13.20;2.40;;;;;;;11.36;79.42;101193.86;113468;1197;24093;-59
2021/10/18 12:04:09;;;;;;;11.20;2.30;;;;;;;11.42;79.28;101192.87;113545;1197;22553;-61
2021/10/18 12:06:49;;;;;;;11.50;1.90;;;;;;;11.47;79.26;101190.64;113515;1197;22432;-61
2021/10/18 12:09:29;;;;;;;11.10;2.60;;;;;;;11.52;79.16;101190.50;113665;1197;22438;-60
2021/10/18 12:12:14;;;;;;;10.10;2.10;;;;;;;11.59;79.06;101189.42;113532;1190;22421;-61
2021/10/18 12:14:59;;;;;;;9.80;1.70;;;;;;;11.66;78.99;101190.27;113797;1197;22442;-62
2021/10/18 12:17:32;;;;;;;10.50;1.90;;;;;;;11.73;78.94;101187.58;113477;1197;24173;-60
2021/10/18 12:20:04;;;;;;;12.00;1.90;;;;;;;11.80;78.44;101189.20;113548;1197;24207;-62
2021/10/18 12:22:35;;;;;;;6.90;1.80;;;;;;;11.85;78.25;101187.94;113448;1197;22445;-62
2021/10/18 12:25:09;;;;;;;7.20;1.70;;;;;;;11.90;78.11;101192.51;113506;1197;22982;-62
2021/10/18 12:27:40;;;;;;;9.50;1.90;;;;;;;11.94;77.89;101196.18;113449;1197;24554;-61
2021/10/18 12:30:39;;;;;;;10.40;1.70;;;;;;;11.97;77.61;101190.21;113583;1197;24602;-62
2021/10/18 12:33:12;;;;;;;9.70;1.60;;;;;;;12.01;77.45;101195.02;113511;1190;22455;-59
2021/10/18 12:35:56;;;;;;;10.00;1.70;;;;;;;12.02;77.28;101192.86;113599;1197;22534;-62
2021/10/18 12:38:30;;;;;;;7.50;1.50;;;;;;;12.06;77.29;101189.10;113517;1191;24053;-61
2021/10/18 12:41:15;;;;;;;6.80;1.50;;;;;;;12.09;77.27;101193.83;113583;1197;27366;-62